Time;durP1;ratioP1;P1;durP2;ratioP2;P2;SDS_P1;SDS_P2;PMS_P1;PMS_P2;Temp;Humidity;BMP_temperature;BMP_pressure;BME280_temperature;BME280_humidity;BME280_pressure;Samples;Min_cycle;Max_cycle;Signal;HPM_P1;HPM_P2
2023/03/04 00:01:29;;;;;;;5.85;3.63;;;;;;;-1.76;80.73;97642.41;7347755;19;20006;-76
2023/03/04 00:03:53;;;;;;;7.82;3.33;;;;;;;-1.85;80.64;97634.13;7348504;19;20486;-75
2023/03/04 00:06:18;;;;;;;13.23;5.00;;;;;;;-1.93;80.76;97631.09;7347038;19;20011;-75
2023/03/04 00:08:42;;;;;;;6.50;3.00;;;;;;;-1.92;80.92;97635.38;7346829;19;20014;-75
2023/03/04 00:11:07;;;;;;;10.43;4.07;;;;;;;-1.98;81.28;97630.50;7351116;19;20015;-72
2023/03/04 00:13:32;;;;;;;6.57;3.78;;;;;;;-1.96;81.47;97626.03;7357821;19;20018;-72
2023/03/04 00:15:56;;;;;;;8.70;4.05;;;;;;;-1.95;81.34;97613.81;7351562;19;20434;-71
2023/03/04 00:18:21;;;;;;;7.07;4.47;;;;;;;-1.89;81.34;97621.31;7353803;19;20018;-72
2023/03/04 00:20:46;;;;;;;8.52;3.70;;;;;;;-1.90;81.70;97617.00;7354245;19;20006;-72
2023/03/04 00:23:11;;;;;;;4.32;2.97;;;;;;;-1.86;81.65;97618.53;7348359;19;20491;-74
2023/03/04 00:25:35;;;;;;;5.35;3.15;;;;;;;-1.80;81.75;97609.53;7352607;19;20017;-75
2023/03/04 00:28:00;;;;;;;8.18;2.95;;;;;;;-1.78;81.45;97611.13;7356164;19;20031;-77
2023/03/04 00:30:25;;;;;;;5.32;3.50;;;;;;;-1.77;81.48;97606.75;7350210;19;20042;-71
2023/03/04 00:32:49;;;;;;;6.72;4.05;;;;;;;-1.87;81.47;97609.03;7348883;19;20022;-73
2023/03/04 00:35:15;;;;;;;5.05;3.35;;;;;;;-1.79;81.27;97611.22;7345393;19;20648;-66
2023/03/04 00:37:39;;;;;;;10.50;5.03;;;;;;;-1.87;81.31;97599.41;7346478;19;20018;-71
2023/03/04 00:40:04;;;;;;;6.18;3.15;;;;;;;-1.93;81.59;97597.16;7347163;19;20011;-72
2023/03/04 00:42:29;;;;;;;12.10;4.50;;;;;;;-1.99;81.78;97588.78;7350052;19;20018;-74
2023/03/04 00:44:54;;;;;;;8.35;4.82;;;;;;;-1.95;81.78;97596.41;7347741;19;20009;-73
2023/03/04 00:47:18;;;;;;;7.68;4.00;;;;;;;-1.87;81.80;97595.97;7346473;19;20029;-71
2023/03/04 00:49:43;;;;;;;6.75;4.15;;;;;;;-1.94;81.65;97592.00;7344317;19;20015;-72
2023/03/04 00:52:07;;;;;;;7.10;3.53;;;;;;;-1.88;81.75;97602.97;7348478;19;20033;-73
2023/03/04 00:54:32;;;;;;;10.95;5.05;;;;;;;-1.96;81.86;97594.69;7343987;19;20018;-72
2023/03/04 00:56:57;;;;;;;7.45;4.10;;;;;;;-1.89;81.71;97596.03;7347441;19;20358;-72
2023/03/04 00:59:21;;;;;;;9.07;4.30;;;;;;;-1.96;81.70;97586.88;7345687;19;20014;-73
2023/03/04 01:01:46;;;;;;;8.20;4.72;;;;;;;-1.96;82.04;97593.84;7345349;19;20010;-72
2023/03/04 01:04:10;;;;;;;8.82;4.22;;;;;;;-1.91;81.94;97589.22;7344910;19;20011;-72
2023/03/04 01:06:35;;;;;;;7.82;5.03;;;;;;;-1.92;81.97;97601.44;7344200;19;20018;-72
2023/03/04 01:09:00;;;;;;;10.52;4.63;;;;;;;-1.84;82.13;97594.03;7342725;19;20334;-74
2023/03/04 01:11:25;;;;;;;7.43;5.78;;;;;;;-1.78;82.14;97592.00;7346373;19;20400;-72
2023/03/04 01:13:49;;;;;;;13.98;5.35;;;;;;;-1.74;82.26;97593.53;7344015;19;20015;-73
2023/03/04 01:16:14;;;;;;;7.60;4.45;;;;;;;-1.71;81.92;97582.94;7345135;19;20041;-65
2023/03/04 01:18:39;;;;;;;8.68;4.85;;;;;;;-1.68;81.71;97580.97;7341534;19;20006;-65
2023/03/04 01:21:05;;;;;;;8.77;5.15;;;;;;;-1.66;81.74;97591.34;7343202;19;20014;-75
2023/03/04 01:23:29;;;;;;;11.57;5.13;;;;;;;-1.59;81.87;97587.47;7332552;19;20025;-71
2023/03/04 01:25:54;;;;;;;13.20;6.30;;;;;;;-1.58;81.77;97589.16;7338579;19;20126;-72
2023/03/04 01:28:18;;;;;;;11.80;5.30;;;;;;;-1.58;81.43;97573.47;7346080;19;20401;-73
2023/03/04 01:30:43;;;;;;;11.00;5.28;;;;;;;-1.59;81.27;97570.03;7342858;19;20010;-71
2023/03/04 01:33:08;;;;;;;6.75;4.68;;;;;;;-1.58;81.40;97563.03;7343451;19;20025;-71
2023/03/04 01:35:32;;;;;;;9.70;5.35;;;;;;;-1.66;81.55;97568.66;7342497;19;20038;-71
2023/03/04 01:37:57;;;;;;;7.13;4.57;;;;;;;-1.64;81.46;97561.59;7342983;19;20082;-72
2023/03/04 01:40:21;;;;;;;9.32;5.25;;;;;;;-1.68;81.29;97569.66;7341596;19;20047;-64
2023/03/04 01:42:46;;;;;;;8.93;4.65;;;;;;;-1.67;81.31;97563.53;7345112;19;20017;-64
2023/03/04 01:45:17;;;;;;;8.43;5.45;;;;;;;-1.68;81.26;97572.28;7343237;19;20006;-65
2023/03/04 01:47:47;;;;;;;8.48;4.95;;;;;;;-1.71;81.34;97565.47;7344962;19;20022;-66
2023/03/04 01:50:32;;;;;;;7.68;4.97;;;;;;;-1.66;81.74;97565.22;7343122;19;20019;-67
2023/03/04 01:52:57;;;;;;;6.32;4.35;;;;;;;-1.62;81.76;97562.34;7344033;19;20072;-66
2023/03/04 01:55:22;;;;;;;11.45;5.25;;;;;;;-1.63;81.90;97552.84;7343086;19;20014;-72
2023/03/04 01:57:48;;;;;;;11.80;6.50;;;;;;;-1.69;81.85;97534.06;7342975;19;20022;-72
2023/03/04 02:00:30;;;;;;;10.30;5.18;;;;;;;-1.63;81.84;97542.38;7342457;19;20014;-71
2023/03/04 02:02:59;;;;;;;12.23;5.95;;;;;;;-1.67;81.57;97543.47;7338309;19;20010;-69
2023/03/04 02:05:24;;;;;;;8.85;5.25;;;;;;;-1.71;81.39;97525.47;7335196;19;20014;-71
2023/03/04 02:07:51;;;;;;;10.25;6.13;;;;;;;-1.74;81.61;97525.63;7337479;19;20028;-70
2023/03/04 02:10:16;;;;;;;9.85;5.68;;;;;;;-1.78;81.56;97522.34;7342144;19;20010;-68
2023/03/04 02:12:41;;;;;;;9.07;5.65;;;;;;;-1.76;81.46;97522.25;7340470;19;20065;-74
2023/03/04 02:15:07;;;;;;;9.05;5.63;;;;;;;-1.79;81.39;97522.41;7336602;19;20002;-69
2023/03/04 02:17:32;;;;;;;11.68;6.80;;;;;;;-1.96;81.60;97525.97;7341208;19;20034;-72
2023/03/04 02:20:22;;;;;;;14.10;8.20;;;;;;;-2.07;82.36;97513.50;7348251;19;20392;-70
2023/03/04 02:22:55;;;;;;;12.60;5.10;;;;;;;-1.93;81.72;97505.78;7347003;19;20338;-71
2023/03/04 02:25:29;;;;;;;15.60;7.43;;;;;;;-2.18;82.30;97515.03;7345193;19;20037;-70
2023/03/04 02:27:54;;;;;;;14.83;8.33;;;;;;;-2.30;82.90;97496.50;7354185;19;20021;-69
2023/03/04 02:30:24;;;;;;;15.32;9.05;;;;;;;-2.27;83.29;97498.09;7359977;19;20251;-69
2023/03/04 02:32:48;;;;;;;16.70;7.72;;;;;;;-2.25;83.62;97504.06;7352696;19;20018;-67
2023/03/04 02:35:16;;;;;;;12.57;7.05;;;;;;;-2.12;82.96;97484.19;7348909;19;20037;-67
2023/03/04 02:37:43;;;;;;;11.30;7.00;;;;;;;-2.18;83.13;97475.88;7350570;19;20050;-69
2023/03/04 02:40:15;;;;;;;10.65;7.50;;;;;;;-2.19;83.68;97482.84;7351550;19;20745;-71
2023/03/04 02:42:43;;;;;;;13.02;7.13;;;;;;;-2.29;83.71;97482.53;7351157;19;20021;-71
2023/03/04 02:45:34;;;;;;;12.57;6.95;;;;;;;-2.29;83.99;97479.06;7353528;19;20011;-72
2023/03/04 02:47:59;;;;;;;16.45;7.13;;;;;;;-2.29;84.00;97468.63;7351375;19;20021;-69
2023/03/04 02:50:25;;;;;;;10.80;6.25;;;;;;;-2.25;84.32;97475.34;7350624;19;20084;-72
2023/03/04 02:52:49;;;;;;;13.07;7.75;;;;;;;-2.26;84.27;97468.47;7350331;19;20014;-69
2023/03/04 02:55:16;;;;;;;11.80;5.90;;;;;;;-2.21;84.32;97469.03;7346326;19;20022;-68
2023/03/04 02:57:41;;;;;;;13.32;6.93;;;;;;;-2.17;84.03;97464.50;7348944;19;20014;-65
2023/03/04 03:00:06;;;;;;;10.75;5.47;;;;;;;-2.03;83.84;97468.00;7349156;19;20014;-65
2023/03/04 03:02:31;;;;;;;12.55;7.35;;;;;;;-2.22;84.01;97462.97;7349952;19;20082;-66
2023/03/04 03:04:56;;;;;;;8.38;4.93;;;;;;;-2.12;84.01;97471.13;7350262;19;20027;-68
2023/03/04 03:07:21;;;;;;;13.82;7.00;;;;;;;-2.16;83.94;97466.19;7346890;19;20371;-68
2023/03/04 03:09:46;;;;;;;12.82;7.15;;;;;;;-2.21;83.79;97459.44;7348796;19;20018;-65
2023/03/04 03:12:11;;;;;;;13.00;6.30;;;;;;;-2.33;84.11;97465.34;7348625;19;20497;-69
2023/03/04 03:14:36;;;;;;;9.73;6.18;;;;;;;-2.30;84.22;97456.50;7347318;19;20020;-70
2023/03/04 03:17:02;;;;;;;10.65;6.38;;;;;;;-2.24;84.23;97457.00;7347088;19;20018;-68
2023/03/04 03:19:26;;;;;;;17.90;7.15;;;;;;;-2.22;84.03;97457.75;7349796;19;20033;-66
2023/03/04 03:21:52;;;;;;;10.05;5.20;;;;;;;-2.09;84.00;97441.44;7347859;19;20122;-68
2023/03/04 03:24:16;;;;;;;12.35;5.88;;;;;;;-2.21;83.85;97442.94;7350534;19;20022;-67
2023/03/04 03:26:41;;;;;;;16.50;7.20;;;;;;;-2.20;83.84;97436.81;7347245;19;20014;-68
2023/03/04 03:29:06;;;;;;;13.85;7.60;;;;;;;-2.27;83.97;97449.38;7351232;19;20014;-68
2023/03/04 03:31:30;;;;;;;8.10;5.75;;;;;;;-2.21;84.00;97432.50;7349120;19;20026;-68
2023/03/04 03:33:55;;;;;;;10.05;6.03;;;;;;;-2.24;83.80;97428.28;7350980;19;20430;-78
2023/03/04 03:36:19;;;;;;;8.80;5.25;;;;;;;-2.14;83.88;97433.03;7349160;19;20011;-73
2023/03/04 03:38:52;;;;;;;9.98;6.05;;;;;;;-2.10;83.95;97429.28;7344417;19;20033;-71
2023/03/04 03:41:17;;;;;;;10.68;5.55;;;;;;;-2.05;83.88;97425.50;7345333;19;20011;-70
2023/03/04 03:43:42;;;;;;;9.02;5.93;;;;;;;-2.11;83.80;97433.69;7349877;19;20033;-76
2023/03/04 03:46:06;;;;;;;9.82;5.70;;;;;;;-2.09;83.70;97423.16;7347269;19;20036;-73
2023/03/04 03:48:31;;;;;;;7.93;4.85;;;;;;;-2.09;83.64;97421.38;7354183;19;20025;-72
2023/03/04 03:50:58;;;;;;;10.10;6.07;;;;;;;-2.05;83.64;97411.63;7349364;19;20386;-72
2023/03/04 03:53:23;;;;;;;8.85;4.70;;;;;;;-1.96;83.71;97411.09;7348586;19;20428;-72
2023/03/04 03:55:47;;;;;;;7.63;4.85;;;;;;;-1.92;83.49;97397.75;7344126;19;20014;-74
2023/03/04 03:58:13;;;;;;;8.70;5.43;;;;;;;-1.92;83.31;97397.75;7347291;19;20092;-73
2023/03/04 04:00:37;;;;;;;8.85;4.75;;;;;;;-1.90;83.41;97384.63;7346673;19;20010;-73
2023/03/04 04:03:02;;;;;;;9.90;5.18;;;;;;;-1.95;83.36;97386.66;7346254;19;20022;-72
2023/03/04 04:05:27;;;;;;;11.80;5.68;;;;;;;-1.98;83.25;97386.84;7347276;19;20025;-74
2023/03/04 04:07:52;;;;;;;7.35;4.72;;;;;;;-1.93;83.38;97377.81;7348037;19;20011;-73
2023/03/04 04:10:16;;;;;;;9.82;5.30;;;;;;;-1.91;83.07;97369.88;7349342;19;20434;-74
2023/03/04 04:12:41;;;;;;;9.25;6.05;;;;;;;-1.90;83.32;97380.25;7355653;19;20006;-73
2023/03/04 04:15:07;;;;;;;12.68;5.75;;;;;;;-1.90;83.23;97368.94;7345707;19;20013;-70
2023/03/04 04:17:31;;;;;;;8.93;6.07;;;;;;;-1.94;83.35;97365.69;7347009;19;20015;-70
2023/03/04 04:19:56;;;;;;;12.23;5.78;;;;;;;-1.86;83.51;97368.69;7349446;19;20035;-70
2023/03/04 04:22:20;;;;;;;8.60;4.90;;;;;;;-1.87;83.50;97361.78;7345891;19;20014;-70
2023/03/04 04:24:46;;;;;;;11.63;5.95;;;;;;;-1.84;83.23;97352.94;7346998;19;20078;-72
2023/03/04 04:27:11;;;;;;;11.73;6.10;;;;;;;-1.85;83.34;97359.94;7345195;19;20477;-69
2023/03/04 04:29:36;;;;;;;11.80;5.53;;;;;;;-1.81;83.39;97359.78;7348286;19;20481;-70
2023/03/04 04:32:01;;;;;;;7.68;4.53;;;;;;;-1.87;83.40;97348.72;7347591;19;20029;-71
2023/03/04 04:34:25;;;;;;;9.05;5.32;;;;;;;-1.78;83.48;97352.56;7350104;19;20066;-72
2023/03/04 04:36:50;;;;;;;8.00;5.10;;;;;;;-1.59;83.34;97347.13;7357273;19;20015;-71
2023/03/04 04:39:15;;;;;;;8.20;4.47;;;;;;;-1.66;83.18;97344.00;7358825;19;20346;-72
2023/03/04 04:41:41;;;;;;;9.80;6.55;;;;;;;-1.73;83.08;97350.53;7346306;19;20017;-71
2023/03/04 04:44:06;;;;;;;7.82;4.78;;;;;;;-1.67;83.22;97344.09;7347580;19;20010;-72
2023/03/04 04:46:31;;;;;;;13.05;6.78;;;;;;;-1.69;83.19;97346.00;7348144;19;20017;-71
2023/03/04 04:48:55;;;;;;;8.88;5.45;;;;;;;-1.73;83.11;97347.09;7347136;19;20478;-72
2023/03/04 04:51:20;;;;;;;10.00;5.38;;;;;;;-1.70;83.24;97349.53;7342710;19;20462;-70
2023/03/04 04:53:45;;;;;;;7.03;4.53;;;;;;;-1.62;83.24;97353.38;7346016;19;20018;-71
2023/03/04 04:56:12;;;;;;;6.20;4.05;;;;;;;-1.54;83.42;97339.84;7345128;19;20035;-72
2023/03/04 04:58:37;;;;;;;7.20;4.80;;;;;;;-1.55;83.20;97343.38;7348008;19;20014;-72
2023/03/04 05:01:03;;;;;;;10.60;5.43;;;;;;;-1.49;83.01;97332.56;7348631;19;20009;-72
2023/03/04 05:03:27;;;;;;;12.80;4.43;;;;;;;-1.41;83.05;97329.50;7350405;19;20350;-68
2023/03/04 05:05:52;;;;;;;5.55;4.10;;;;;;;-1.42;82.96;97339.09;7350125;19;20014;-68
2023/03/04 05:08:16;;;;;;;7.00;4.05;;;;;;;-1.39;82.74;97331.09;7347573;19;20111;-68
2023/03/04 05:10:41;;;;;;;7.32;4.68;;;;;;;-1.40;83.03;97333.78;7344687;19;20006;-67
2023/03/04 05:13:11;;;;;;;6.22;4.00;;;;;;;-1.36;82.81;97330.91;7380793;19;20062;-68
2023/03/04 05:15:37;;;;;;;6.65;4.03;;;;;;;-1.35;82.77;97332.56;7379552;19;20022;-67
2023/03/04 05:18:01;;;;;;;7.20;4.60;;;;;;;-1.32;82.48;97327.16;7381682;19;20043;-66
2023/03/04 05:20:26;;;;;;;6.03;4.50;;;;;;;-1.30;82.55;97329.69;7379902;19;20006;-69
2023/03/04 05:22:51;;;;;;;5.88;3.83;;;;;;;-1.28;82.40;97327.81;7378564;19;20016;-67
2023/03/04 05:25:15;;;;;;;6.10;4.03;;;;;;;-1.28;82.42;97319.97;7377745;19;20035;-71
2023/03/04 05:27:40;;;;;;;6.85;4.53;;;;;;;-1.47;82.50;97328.09;7380115;19;20360;-68
2023/03/04 05:30:05;;;;;;;5.38;3.83;;;;;;;-1.30;82.31;97327.91;7379078;19;20604;-69
2023/03/04 05:32:30;;;;;;;6.95;3.75;;;;;;;-1.19;82.07;97325.47;7376701;19;20018;-67
2023/03/04 05:34:55;;;;;;;5.75;4.13;;;;;;;-1.16;81.84;97329.69;7377477;19;20138;-68
2023/03/04 05:37:19;;;;;;;6.65;3.90;;;;;;;-1.13;82.21;97327.69;7378400;19;20014;-68
2023/03/04 05:39:44;;;;;;;5.35;3.45;;;;;;;-0.97;82.08;97324.16;7379131;19;20041;-67
2023/03/04 05:42:08;;;;;;;6.13;3.92;;;;;;;-0.87;81.91;97327.88;7382137;19;20500;-68
2023/03/04 05:44:33;;;;;;;7.25;4.75;;;;;;;-0.89;81.45;97325.34;7381008;19;20014;-68
2023/03/04 05:46:57;;;;;;;6.88;4.05;;;;;;;-0.85;80.81;97313.78;7382347;19;20029;-68
2023/03/04 05:49:22;;;;;;;6.03;3.42;;;;;;;-0.74;81.08;97311.31;7382235;19;20015;-67
2023/03/04 05:51:47;;;;;;;6.60;4.05;;;;;;;-0.83;81.12;97305.84;7381925;19;20496;-67
2023/03/04 05:54:12;;;;;;;5.90;4.20;;;;;;;-0.75;81.07;97308.78;7381228;19;20010;-67
2023/03/04 05:56:36;;;;;;;10.18;3.90;;;;;;;-0.65;81.23;97304.66;7383906;19;20022;-67
2023/03/04 05:59:01;;;;;;;5.68;3.80;;;;;;;-0.79;80.28;97302.09;7378146;19;20383;-66
2023/03/04 06:01:25;;;;;;;5.40;3.55;;;;;;;-0.69;80.28;97295.34;7384365;19;20010;-66
2023/03/04 06:03:50;;;;;;;8.88;4.30;;;;;;;-0.56;79.94;97296.22;7378612;19;20081;-68
2023/03/04 06:06:15;;;;;;;5.82;4.10;;;;;;;-0.44;79.04;97294.59;7378006;19;20011;-67
2023/03/04 06:08:40;;;;;;;7.10;3.47;;;;;;;-0.25;78.91;97289.00;7376204;19;20014;-68
2023/03/04 06:11:05;;;;;;;4.53;3.10;;;;;;;-0.10;78.75;97282.75;7380328;19;20007;-68
2023/03/04 06:13:30;;;;;;;7.05;3.15;;;;;;;0.10;78.81;97284.06;7384799;19;20010;-72
2023/03/04 06:15:56;;;;;;;5.25;3.78;;;;;;;0.17;78.59;97282.69;7384442;19;20018;-69
2023/03/04 06:18:22;;;;;;;4.97;3.40;;;;;;;0.28;78.28;97283.66;7388716;19;20109;-67
2023/03/04 06:20:46;;;;;;;8.20;4.18;;;;;;;0.48;77.45;97282.28;7389655;19;20033;-68
2023/03/04 06:23:11;;;;;;;5.75;3.45;;;;;;;0.57;76.50;97280.78;7377046;19;20019;-68
2023/03/04 06:25:35;;;;;;;8.32;4.00;;;;;;;0.58;75.17;97277.22;7359681;19;20090;-71
2023/03/04 06:28:00;;;;;;;4.85;3.47;;;;;;;0.81;75.36;97268.59;7362266;19;20018;-66
2023/03/04 06:30:25;;;;;;;6.75;3.60;;;;;;;0.98;75.25;97270.91;7358868;19;20011;-68
2023/03/04 06:32:50;;;;;;;6.95;2.67;;;;;;;1.09;73.52;97251.78;7355574;19;20034;-67
2023/03/04 06:35:15;;;;;;;8.05;4.13;;;;;;;1.24;73.06;97255.91;7348702;19;20038;-67
2023/03/04 06:37:40;;;;;;;7.18;4.28;;;;;;;1.45;72.77;97264.03;7351522;19;20511;-65
2023/03/04 06:40:06;;;;;;;8.52;4.00;;;;;;;1.50;73.13;97251.41;7349127;19;20454;-69
2023/03/04 06:42:31;;;;;;;4.38;3.85;;;;;;;1.50;71.63;97242.69;7359353;19;20019;-68
2023/03/04 06:44:55;;;;;;;9.23;4.45;;;;;;;1.60;71.92;97246.31;7352686;19;20483;-71
2023/03/04 06:47:20;;;;;;;7.63;4.47;;;;;;;1.44;70.28;97238.72;7351288;19;20018;-70
2023/03/04 06:49:45;;;;;;;7.00;4.60;;;;;;;1.58;70.77;97238.53;7360905;19;20582;-69
2023/03/04 06:52:11;;;;;;;6.78;3.92;;;;;;;1.57;70.85;97234.25;7362862;19;20021;-70
2023/03/04 06:54:36;;;;;;;7.72;3.80;;;;;;;1.54;70.40;97233.63;7358448;19;20014;-66
2023/03/04 06:57:00;;;;;;;7.70;4.00;;;;;;;1.51;70.55;97241.72;7358794;19;20021;-66
2023/03/04 06:59:25;;;;;;;5.07;3.55;;;;;;;1.68;71.23;97228.22;7355311;19;20006;-66
2023/03/04 07:01:50;;;;;;;8.75;4.10;;;;;;;1.75;70.97;97224.16;7349295;19;20365;-67
2023/03/04 07:04:14;;;;;;;8.15;5.10;;;;;;;1.72;71.05;97222.59;7348102;19;20015;-68
2023/03/04 07:06:39;;;;;;;6.95;3.95;;;;;;;1.56;71.86;97224.69;7352061;19;20353;-71
2023/03/04 07:09:04;;;;;;;6.75;4.43;;;;;;;1.34;71.27;97214.09;7356344;19;20006;-71
2023/03/04 07:11:28;;;;;;;10.48;4.35;;;;;;;1.31;72.03;97209.91;7353420;19;20031;-72
2023/03/04 07:13:53;;;;;;;8.57;4.50;;;;;;;1.22;72.33;97210.59;7351255;19;20018;-68
2023/03/04 07:16:20;;;;;;;5.28;3.75;;;;;;;1.21;72.72;97214.16;7351154;19;20018;-68
2023/03/04 07:18:45;;;;;;;10.55;4.03;;;;;;;1.14;72.43;97207.66;7347213;19;20015;-68
2023/03/04 07:21:12;;;;;;;2.63;2.20;;;;;;;1.27;72.91;97197.94;7351904;19;20096;-67
2023/03/04 07:23:37;;;;;;;6.00;3.35;;;;;;;1.09;73.19;97201.91;7349584;19;20021;-67
2023/03/04 07:26:02;;;;;;;9.43;5.30;;;;;;;1.15;73.22;97198.84;7351412;19;20086;-66
2023/03/04 07:28:27;;;;;;;6.82;4.53;;;;;;;1.15;73.23;97192.75;7354357;19;20003;-68
2023/03/04 07:30:52;;;;;;;9.82;4.72;;;;;;;1.05;73.17;97187.34;7350563;19;20026;-70
2023/03/04 07:33:16;;;;;;;9.20;5.38;;;;;;;0.80;73.16;97192.66;7346977;19;20007;-67
2023/03/04 07:35:41;;;;;;;10.43;5.20;;;;;;;0.93;73.61;97189.06;7345974;19;20019;-69
2023/03/04 07:38:06;;;;;;;5.43;3.45;;;;;;;1.02;73.64;97184.94;7346506;19;20057;-68
2023/03/04 07:40:31;;;;;;;7.53;4.47;;;;;;;0.66;73.70;97180.56;7348013;19;20023;-70
2023/03/04 07:42:56;;;;;;;8.70;4.80;;;;;;;0.52;74.29;97181.53;7344926;19;20051;-68
2023/03/04 07:45:21;;;;;;;9.60;6.38;;;;;;;0.19;74.67;97170.78;7346232;19;20014;-70
2023/03/04 07:47:46;;;;;;;11.52;5.65;;;;;;;0.37;74.96;97185.22;7350410;19;20022;-69
2023/03/04 07:50:12;;;;;;;10.98;5.43;;;;;;;0.48;74.68;97168.72;7346735;19;20554;-69
2023/03/04 07:52:38;;;;;;;10.95;6.07;;;;;;;0.27;74.89;97178.94;7346078;19;20027;-69
2023/03/04 07:55:03;;;;;;;9.88;5.25;;;;;;;0.36;75.04;97173.03;7352685;19;20035;-68
2023/03/04 07:57:27;;;;;;;9.32;6.28;;;;;;;0.30;74.98;97168.25;7348894;19;20019;-68
2023/03/04 07:59:52;;;;;;;14.52;6.25;;;;;;;0.16;75.27;97163.97;7357468;19;20819;-70
2023/03/04 08:02:17;;;;;;;8.95;5.65;;;;;;;0.20;75.71;97162.81;7344760;19;20022;-69
2023/03/04 08:04:41;;;;;;;9.20;5.57;;;;;;;0.30;75.37;97155.97;7344305;19;20351;-71
2023/03/04 08:07:06;;;;;;;9.85;5.55;;;;;;;0.24;75.80;97159.00;7344525;19;20481;-69
2023/03/04 08:09:31;;;;;;;7.47;4.60;;;;;;;0.35;75.80;97161.72;7346948;19;20474;-70
2023/03/04 08:11:55;;;;;;;7.60;4.90;;;;;;;0.59;75.42;97158.31;7344533;19;20011;-67
2023/03/04 08:14:20;;;;;;;6.85;5.10;;;;;;;0.55;75.02;97154.25;7346370;19;20017;-67
2023/03/04 08:16:45;;;;;;;8.48;4.20;;;;;;;0.48;75.04;97148.59;7345315;19;20086;-67
2023/03/04 08:19:11;;;;;;;14.48;6.03;;;;;;;0.45;75.01;97146.22;7347995;19;20021;-67
2023/03/04 08:21:35;;;;;;;6.95;4.10;;;;;;;0.73;74.95;97145.06;7351784;19;20078;-68
2023/03/04 08:24:06;;;;;;;7.38;4.32;;;;;;;0.77;74.86;97141.28;7351139;19;20043;-68
2023/03/04 08:26:34;;;;;;;7.15;4.60;;;;;;;0.75;74.50;97143.19;7355449;19;20019;-69
2023/03/04 08:29:01;;;;;;;7.25;3.97;;;;;;;0.76;74.71;97142.25;7351189;19;20025;-68
2023/03/04 08:31:26;;;;;;;9.50;3.47;;;;;;;0.71;74.48;97142.56;7341658;19;20473;-70
2023/03/04 08:33:51;;;;;;;9.50;5.00;;;;;;;0.62;74.60;97137.13;7343769;19;20385;-68
2023/03/04 08:36:16;;;;;;;7.75;4.57;;;;;;;0.49;74.76;97138.94;7343823;19;20015;-68
2023/03/04 08:38:41;;;;;;;4.30;3.20;;;;;;;0.63;74.52;97133.56;7345180;19;20048;-67
2023/03/04 08:41:06;;;;;;;7.13;4.18;;;;;;;0.47;74.46;97127.72;7341457;19;20021;-68
2023/03/04 08:43:32;;;;;;;7.13;3.97;;;;;;;0.56;74.32;97121.88;7343022;19;20077;-71
2023/03/04 08:45:57;;;;;;;5.60;3.70;;;;;;;0.59;74.55;97124.25;7343022;19;20057;-72
2023/03/04 08:48:22;;;;;;;5.63;3.42;;;;;;;0.79;74.20;97107.91;7343541;19;20034;-71
2023/03/04 08:50:47;;;;;;;6.03;3.58;;;;;;;0.76;73.76;97104.69;7341709;19;20014;-71
2023/03/04 08:53:13;;;;;;;1.83;1.67;;;;;;;1.15;73.68;97099.13;7341101;19;20402;-72
2023/03/04 08:55:38;;;;;;;3.88;3.00;;;;;;;1.44;73.21;97102.22;7342947;19;20021;-71
2023/03/04 08:58:03;;;;;;;4.00;2.95;;;;;;;2.34;72.07;97087.38;7344437;19;20331;-71
2023/03/04 09:00:28;;;;;;;2.90;2.50;;;;;;;2.89;70.52;97097.78;7341115;19;20459;-71
2023/03/04 09:02:54;;;;;;;3.40;2.58;;;;;;;2.80;68.88;97087.16;7344512;19;20013;-71
2023/03/04 09:05:19;;;;;;;6.35;3.60;;;;;;;3.17;69.26;97080.53;7345456;19;20011;-70
2023/03/04 09:07:44;;;;;;;3.30;2.78;;;;;;;3.28;67.69;97071.75;7344094;19;20018;-71
2023/03/04 09:10:09;;;;;;;13.82;5.50;;;;;;;2.97;65.39;97078.72;7343362;19;20017;-71
2023/03/04 09:12:33;;;;;;;4.43;3.03;;;;;;;2.77;66.11;97064.56;7342410;19;20022;-72
2023/03/04 09:14:58;;;;;;;2.38;1.65;;;;;;;2.85;67.86;97075.28;7343142;19;20104;-71
2023/03/04 09:17:23;;;;;;;3.80;3.15;;;;;;;2.40;67.70;97069.28;7343936;19;20033;-71
2023/03/04 09:19:48;;;;;;;3.38;2.63;;;;;;;1.93;67.82;97048.53;7343103;19;20018;-71
2023/03/04 09:22:13;;;;;;;5.57;3.33;;;;;;;1.58;67.77;97041.59;7341342;19;20070;-73
2023/03/04 09:24:39;;;;;;;5.15;3.15;;;;;;;1.49;68.36;97054.59;7342819;19;20413;-71
2023/03/04 09:27:03;;;;;;;3.75;2.90;;;;;;;1.04;68.57;97049.25;7341818;19;20030;-72
2023/03/04 09:29:28;;;;;;;2.47;2.15;;;;;;;1.35;68.43;97046.00;7342599;19;20018;-71
2023/03/04 09:31:53;;;;;;;8.82;1.70;;;;;;;1.40;68.78;97037.78;7340667;19;20478;-73
2023/03/04 09:34:17;;;;;;;3.58;2.58;;;;;;;1.19;69.17;97027.13;7342846;19;20021;-71
2023/03/04 09:36:42;;;;;;;4.80;3.03;;;;;;;1.21;69.04;97019.13;7341349;19;20022;-70
2023/03/04 09:39:07;;;;;;;2.92;2.50;;;;;;;1.65;69.16;97019.19;7343134;19;20070;-71
2023/03/04 09:41:47;;;;;;;5.00;3.30;;;;;;;2.54;67.55;96998.03;7342996;19;20022;-71
2023/03/04 09:44:35;;;;;;;3.63;2.67;;;;;;;3.56;64.36;96989.47;7347210;19;20329;-70
2023/03/04 09:47:03;;;;;;;4.18;2.30;;;;;;;3.96;61.98;96980.75;7345307;19;20025;-70
2023/03/04 09:49:29;;;;;;;3.83;2.78;;;;;;;3.96;60.83;96984.22;7350778;19;20389;-69
2023/03/04 09:52:09;;;;;;;3.17;1.88;;;;;;;3.78;61.14;96987.63;7353694;19;20346;-68
2023/03/04 09:54:52;;;;;;;4.05;1.38;;;;;;;4.01;62.95;96970.66;7348103;19;20025;-67
2023/03/04 09:57:28;;;;;;;2.83;2.45;;;;;;;3.61;62.35;96970.66;7340404;19;20011;-69
2023/03/04 09:59:53;;;;;;;3.00;2.35;;;;;;;3.01;62.30;96966.97;7347969;19;20026;-68
2023/03/04 10:02:43;;;;;;;4.80;2.15;;;;;;;2.89;63.54;96963.56;7346689;19;20020;-68
2023/03/04 10:05:13;;;;;;;5.65;3.30;;;;;;;2.55;63.96;96978.66;7349104;19;20030;-69
2023/03/04 10:07:42;;;;;;;3.80;2.38;;;;;;;2.49;64.36;96959.91;7347995;19;20011;-69
2023/03/04 10:10:18;;;;;;;3.33;1.35;;;;;;;2.46;65.06;96953.13;7348906;19;20031;-67
2023/03/04 10:12:46;;;;;;;3.15;2.45;;;;;;;2.25;64.86;96956.66;7345730;19;20014;-71
2023/03/04 10:15:42;;;;;;;3.70;2.85;;;;;;;2.52;65.10;96942.09;7347762;19;20025;-71
2023/03/04 10:18:32;;;;;;;5.13;2.08;;;;;;;2.67;65.08;96940.00;7350458;19;20011;-71
2023/03/04 10:20:59;;;;;;;2.30;2.05;;;;;;;2.68;64.58;96936.41;7349758;19;20338;-71
2023/03/04 10:23:26;;;;;;;3.03;2.13;;;;;;;2.91;64.95;96937.97;7346397;19;20327;-71
2023/03/04 10:25:53;;;;;;;3.13;1.95;;;;;;;3.04;65.20;96929.88;7348222;19;20018;-70
2023/03/04 10:28:23;;;;;;;2.15;1.73;;;;;;;3.08;65.15;96927.81;7346432;19;20016;-70
2023/03/04 10:31:12;;;;;;;3.22;2.42;;;;;;;2.77;65.60;96921.66;7347323;19;20026;-68
2023/03/04 10:33:39;;;;;;;5.18;3.53;;;;;;;2.46;66.44;96913.69;7348095;19;20032;-68
2023/03/04 10:36:19;;;;;;;7.05;3.40;;;;;;;2.40;67.71;96923.84;7350602;19;20018;-66
2023/03/04 10:38:44;;;;;;;4.75;3.00;;;;;;;2.52;68.07;96901.81;7348304;19;20011;-67
2023/03/04 10:41:19;;;;;;;5.18;2.95;;;;;;;2.46;67.82;96908.44;7347689;19;20011;-67
2023/03/04 10:43:49;;;;;;;4.18;2.78;;;;;;;2.55;68.08;96902.41;7349249;19;20037;-68
2023/03/04 10:46:14;;;;;;;6.00;2.97;;;;;;;2.51;67.88;96898.34;7348305;19;20334;-68
2023/03/04 10:48:42;;;;;;;3.25;2.28;;;;;;;2.61;68.14;96893.16;7346764;19;20014;-68
2023/03/04 10:51:20;;;;;;;3.42;2.20;;;;;;;2.58;68.33;96892.59;7346044;19;20576;-65
2023/03/04 10:53:47;;;;;;;4.43;2.90;;;;;;;2.48;68.59;96888.06;7347814;19;20014;-69
2023/03/04 10:56:57;;;;;;;3.72;2.50;;;;;;;2.48;68.86;96885.44;7347231;19;20017;-70
2023/03/04 10:59:38;;;;;;;3.72;2.35;;;;;;;2.48;69.05;96876.75;7343722;19;20017;-73
2023/03/04 11:02:31;;;;;;;6.53;3.22;;;;;;;2.42;69.20;96882.50;7342583;19;20081;-73
2023/03/04 11:05:14;;;;;;;1.45;1.35;;;;;;;2.64;68.56;96866.59;7344021;19;20030;-73
2023/03/04 11:07:58;;;;;;;5.53;3.75;;;;;;;2.27;69.25;96871.44;7343586;19;20022;-74
2023/03/04 11:10:26;;;;;;;3.80;3.00;;;;;;;2.19;69.22;96861.56;7345557;19;20022;-74
2023/03/04 11:13:11;;;;;;;4.38;3.20;;;;;;;2.19;69.49;96855.47;7340862;19;20022;-73
2023/03/04 11:15:56;;;;;;;;;;;;;;;2.33;69.67;96846.47;7346066;19;20024;-75
2023/03/04 11:18:33;;;;;;;5.03;2.83;;;;;;;1.97;70.12;96845.91;7344069;19;19923;-74
2023/03/04 11:20:59;;;;;;;3.40;2.50;;;;;;;2.01;70.42;96838.59;7343698;19;20022;-71
2023/03/04 11:23:33;;;;;;;6.60;3.42;;;;;;;1.97;70.56;96850.31;7345034;19;20103;-69
2023/03/04 11:26:04;;;;;;;3.22;2.33;;;;;;;1.98;70.55;96833.59;7344468;19;20018;-70
2023/03/04 11:28:44;;;;;;;5.88;4.00;;;;;;;1.41;72.36;96832.06;7347039;19;20007;-70
2023/03/04 11:31:19;;;;;;;8.52;4.25;;;;;;;1.00;74.91;96840.59;7346281;19;20395;-72
2023/03/04 11:34:16;;;;;;;4.40;3.42;;;;;;;0.94;76.60;96836.63;7347889;19;20082;-71
2023/03/04 11:37:07;;;;;;;5.00;3.05;;;;;;;1.04;75.99;96829.72;7343558;19;20035;-69